createdAt,value
2022-12-28T00:02:03.103Z,1.50
2022-12-28T00:04:35.682Z,1.13
2022-12-28T00:07:08.517Z,1.20
2022-12-28T00:09:41.048Z,2.08
2022-12-28T00:12:13.767Z,1.00
2022-12-28T00:14:46.360Z,1.10
2022-12-28T00:17:18.938Z,1.27
2022-12-28T00:19:51.614Z,1.75
2022-12-28T00:22:24.160Z,1.00
2022-12-28T00:24:56.999Z,2.22
2022-12-28T00:27:29.596Z,1.00
2022-12-28T00:30:02.886Z,0.93
2022-12-28T00:32:35.435Z,1.30
2022-12-28T00:35:08.145Z,1.23
2022-12-28T00:37:40.819Z,1.27
2022-12-28T00:40:16.425Z,1.05
2022-12-28T00:42:53.034Z,1.20
2022-12-28T00:45:25.696Z,1.05
2022-12-28T00:47:58.379Z,1.90
2022-12-28T00:50:31.150Z,1.40
2022-12-28T00:53:04.233Z,1.10
2022-12-28T00:55:37.970Z,1.15
2022-12-28T00:58:10.935Z,1.30
2022-12-28T01:00:43.465Z,1.25
2022-12-28T01:03:16.231Z,1.15
2022-12-28T01:05:48.765Z,3.45
2022-12-28T01:08:21.990Z,1.83
2022-12-28T01:10:54.504Z,1.02
2022-12-28T01:13:27.189Z,1.10
2022-12-28T01:16:17.048Z,1.40
2022-12-28T01:18:54.252Z,1.00
2022-12-28T01:21:31.171Z,0.88
2022-12-28T01:24:07.926Z,1.08
2022-12-28T01:26:40.770Z,1.23
2022-12-28T01:29:13.464Z,1.80
2022-12-28T01:31:46.109Z,0.70
2022-12-28T01:34:18.691Z,1.52
2022-12-28T01:36:51.212Z,1.00
2022-12-28T01:39:23.815Z,1.17
2022-12-28T01:41:57.020Z,1.02
2022-12-28T01:44:43.749Z,1.50
2022-12-28T01:47:24.038Z,1.40
2022-12-28T01:50:10.535Z,0.82
2022-12-28T01:52:53.265Z,1.17
2022-12-28T01:55:31.891Z,2.08
2022-12-28T01:58:19.883Z,3.97
2022-12-28T02:00:52.904Z,1.35
2022-12-28T02:03:32.599Z,1.75
2022-12-28T02:06:12.253Z,1.63
2022-12-28T02:08:47.541Z,1.02
2022-12-28T02:11:21.441Z,0.93
2022-12-28T02:13:55.242Z,1.63
2022-12-28T02:16:27.816Z,1.23
2022-12-28T02:19:00.620Z,2.13
2022-12-28T02:22:18.414Z,0.93
2022-12-28T02:25:12.020Z,1.00
2022-12-28T02:30:47.388Z,0.90
2022-12-28T02:33:50.316Z,0.80
2022-12-28T02:36:30.245Z,1.10
2022-12-28T02:39:12.935Z,1.02
2022-12-28T02:41:47.518Z,1.20
2022-12-28T02:44:39.799Z,0.90
2022-12-28T02:47:35.808Z,1.60
2022-12-28T02:50:15.418Z,1.17
2022-12-28T02:52:53.802Z,1.05
2022-12-28T02:56:07.719Z,0.90
2022-12-28T02:59:01.930Z,1.13
2022-12-28T03:02:12.466Z,1.40
2022-12-28T03:04:58.362Z,1.33
2022-12-28T03:08:13.395Z,0.70
2022-12-28T03:11:02.470Z,0.75
2022-12-28T03:13:45.909Z,1.35
2022-12-28T03:16:31.715Z,1.10
2022-12-28T03:19:29.167Z,1.80
2022-12-28T03:22:20.581Z,1.60
2022-12-28T03:25:13.200Z,0.80
2022-12-28T03:28:07.336Z,0.70
2022-12-28T03:31:06.296Z,1.15
2022-12-28T03:33:47.097Z,0.98
2022-12-28T03:36:39.998Z,2.03
2022-12-28T03:39:48.155Z,1.23
2022-12-28T03:42:59.907Z,0.95
2022-12-28T03:46:13.996Z,1.30
2022-12-28T03:48:48.825Z,1.15
2022-12-28T03:51:25.207Z,1.20
2022-12-28T03:53:58.242Z,1.33
2022-12-28T03:56:30.927Z,1.13
2022-12-28T03:59:03.669Z,0.85
2022-12-28T04:01:36.486Z,0.57
2022-12-28T04:04:09.565Z,0.85
2022-12-28T04:06:44.025Z,0.88
2022-12-28T04:09:16.817Z,0.75
2022-12-28T04:11:49.380Z,1.17
2022-12-28T04:14:21.946Z,1.52
2022-12-28T04:16:54.665Z,0.70
2022-12-28T04:19:27.828Z,0.98
2022-12-28T04:22:00.359Z,1.30
2022-12-28T04:24:32.970Z,1.08
2022-12-28T04:27:05.621Z,1.00
2022-12-28T04:29:38.265Z,1.00
2022-12-28T04:32:10.921Z,1.30
2022-12-28T04:34:48.395Z,1.23
2022-12-28T04:37:21.545Z,1.75
2022-12-28T04:39:57.276Z,0.95
2022-12-28T04:42:30.261Z,0.90
2022-12-28T04:45:02.985Z,0.85
2022-12-28T04:47:35.639Z,0.90
2022-12-28T04:50:08.864Z,1.02
2022-12-28T04:52:41.560Z,0.65
2022-12-28T04:55:31.891Z,1.33
2022-12-28T04:58:05.733Z,0.90
2022-12-28T05:00:38.803Z,1.00
2022-12-28T05:03:11.470Z,0.95
2022-12-28T05:05:44.160Z,0.80
2022-12-28T05:08:16.667Z,1.33
2022-12-28T05:10:49.335Z,0.70
2022-12-28T05:13:21.901Z,1.13
2022-12-28T05:15:55.041Z,0.52
2022-12-28T05:18:28.839Z,0.80
2022-12-28T05:21:08.757Z,1.27
2022-12-28T05:23:41.797Z,0.73
2022-12-28T05:26:19.143Z,2.53
2022-12-28T05:28:52.324Z,1.63
2022-12-28T05:31:25.649Z,1.02
2022-12-28T05:33:58.436Z,0.80
2022-12-28T05:36:33.828Z,0.90
2022-12-28T05:39:06.960Z,0.88
2022-12-28T05:41:39.679Z,0.70
2022-12-28T05:44:12.370Z,0.68
2022-12-28T05:46:45.308Z,0.80
2022-12-28T05:49:17.916Z,0.95
2022-12-28T05:51:52.053Z,1.33
2022-12-28T05:56:57.234Z,2.15
2022-12-28T05:59:29.770Z,0.98
2022-12-28T06:02:02.642Z,0.80
2022-12-28T06:04:35.396Z,1.02
2022-12-28T06:07:08.051Z,1.25
2022-12-28T06:09:40.621Z,0.88
2022-12-28T06:12:13.201Z,0.65
2022-12-28T06:14:45.698Z,0.47
2022-12-28T06:17:18.211Z,0.65
2022-12-28T06:19:50.750Z,0.98
2022-12-28T06:22:23.352Z,0.52
2022-12-28T06:24:55.821Z,0.45
2022-12-28T06:27:28.478Z,1.50
2022-12-28T06:30:01.516Z,0.40
2022-12-28T06:32:34.133Z,0.60
2022-12-28T06:35:07.132Z,1.13
2022-12-28T06:37:39.706Z,0.50
2022-12-28T06:40:12.516Z,0.77
2022-12-28T06:42:45.272Z,1.15
2022-12-28T06:45:17.833Z,0.50
2022-12-28T06:47:50.545Z,0.50
2022-12-28T06:50:23.192Z,0.70
2022-12-28T06:52:55.756Z,0.80
2022-12-28T06:55:28.318Z,0.98
2022-12-28T06:58:00.881Z,0.43
2022-12-28T07:00:33.436Z,0.90
2022-12-28T07:03:05.939Z,0.30
2022-12-28T07:05:38.706Z,0.95
2022-12-28T07:08:12.948Z,1.27
2022-12-28T07:10:46.862Z,0.60
2022-12-28T07:13:24.458Z,1.00
2022-12-28T07:16:06.873Z,0.77
2022-12-28T07:18:40.084Z,0.55
2022-12-28T07:21:36.232Z,0.30
2022-12-28T07:24:09.418Z,0.80
2022-12-28T07:26:41.931Z,1.23
2022-12-28T07:29:14.463Z,0.63
2022-12-28T07:31:47.089Z,0.95
2022-12-28T07:34:19.618Z,0.47
2022-12-28T07:36:52.266Z,0.50
2022-12-28T07:39:24.835Z,0.40
2022-12-28T07:41:57.334Z,0.50
2022-12-28T07:44:31.449Z,0.47
2022-12-28T07:47:06.779Z,0.45
2022-12-28T07:49:39.458Z,0.50
2022-12-28T07:52:12.302Z,0.50
2022-12-28T07:54:44.838Z,0.47
2022-12-28T07:57:17.533Z,0.65
2022-12-28T07:59:50.024Z,0.73
2022-12-28T08:02:22.702Z,0.30
2022-12-28T08:04:55.379Z,0.85
2022-12-28T08:07:27.974Z,0.68
2022-12-28T08:10:00.641Z,0.70
2022-12-28T08:12:33.232Z,0.80
2022-12-28T08:15:06.721Z,0.60
2022-12-28T08:17:39.242Z,0.60
2022-12-28T08:20:11.853Z,0.52
2022-12-28T08:22:44.534Z,0.43
2022-12-28T08:25:17.319Z,0.80
2022-12-28T08:27:50.021Z,0.68
2022-12-28T08:30:22.683Z,0.50
2022-12-28T08:32:55.347Z,0.57
2022-12-28T08:35:27.930Z,0.57
2022-12-28T08:38:00.484Z,0.75
2022-12-28T08:40:33.067Z,0.85
2022-12-28T08:43:05.816Z,0.38
2022-12-28T08:45:38.601Z,0.90
2022-12-28T08:48:11.220Z,0.82
2022-12-28T08:50:43.860Z,0.30
2022-12-28T08:53:16.692Z,0.50
2022-12-28T08:55:49.263Z,1.20
2022-12-28T08:58:21.936Z,0.75
2022-12-28T09:00:54.808Z,0.85
2022-12-28T09:03:27.460Z,0.80
2022-12-28T09:06:03.950Z,0.63
2022-12-28T09:08:37.272Z,0.75
2022-12-28T09:11:13.828Z,1.20
2022-12-28T09:13:46.904Z,1.20
2022-12-28T09:16:27.328Z,0.30
2022-12-28T09:19:03.802Z,0.50
2022-12-28T09:21:38.917Z,0.65
2022-12-28T09:24:13.344Z,0.47
2022-12-28T09:26:46.303Z,0.40
2022-12-28T09:29:19.067Z,0.30
2022-12-28T09:31:51.761Z,0.93
2022-12-28T09:34:39.896Z,0.88
2022-12-28T09:37:12.512Z,0.70
2022-12-28T09:39:51.300Z,0.50
2022-12-28T09:42:28.911Z,0.60
2022-12-28T09:45:05.369Z,1.05
2022-12-28T09:47:47.203Z,5.18
2022-12-28T09:50:19.629Z,60.67
2022-12-28T09:53:06.656Z,76.50
2022-12-28T09:55:53.698Z,55.78
2022-12-28T09:58:33.817Z,45.95
2022-12-28T10:01:14.714Z,41.88
2022-12-28T10:03:48.515Z,35.72
2022-12-28T10:06:36.802Z,30.10
2022-12-28T10:09:25.618Z,27.85
2022-12-28T10:12:01.242Z,23.05
2022-12-28T10:14:35.857Z,24.52
2022-12-28T10:17:14.310Z,27.10
2022-12-28T10:19:48.707Z,21.55
2022-12-28T10:22:25.155Z,19.52
2022-12-28T10:24:57.882Z,18.77
2022-12-28T10:27:43.505Z,22.83
2022-12-28T10:30:36.895Z,15.25
2022-12-28T10:33:17.893Z,16.77
2022-12-28T10:35:59.315Z,13.90
2022-12-28T10:38:37.146Z,16.70
2022-12-28T10:41:15.842Z,17.13
2022-12-28T10:44:21.565Z,13.55
2022-12-28T10:47:16.311Z,11.48
2022-12-28T10:50:10.563Z,9.25
2022-12-28T10:52:57.945Z,9.77
2022-12-28T10:55:33.916Z,6.63
2022-12-28T10:58:31.167Z,11.30
2022-12-28T11:01:18.384Z,7.05
2022-12-28T11:03:56.902Z,6.68
2022-12-28T11:07:01.016Z,8.93
2022-12-28T11:09:36.258Z,7.63
2022-12-28T11:12:25.252Z,5.13
2022-12-28T11:14:57.811Z,6.13
2022-12-28T11:17:37.776Z,8.13
2022-12-28T11:20:21.147Z,6.10
2022-12-28T11:22:54.983Z,7.20
2022-12-28T11:25:35.474Z,7.28
2022-12-28T11:28:19.975Z,3.50
2022-12-28T11:30:56.881Z,5.50
2022-12-28T11:33:43.214Z,3.97
2022-12-28T11:36:26.969Z,4.80
2022-12-28T11:39:25.191Z,6.28
2022-12-28T11:42:37.164Z,4.68
2022-12-28T11:44:55.040Z,4.40
2022-12-28T11:47:33.320Z,5.60
2022-12-28T11:50:34.549Z,2.17
2022-12-28T11:53:46.486Z,2.30
2022-12-28T11:56:24.560Z,3.15
2022-12-28T11:58:59.810Z,3.22
2022-12-28T12:01:34.435Z,2.85
2022-12-28T12:04:17.239Z,4.75
2022-12-28T12:06:49.692Z,1.95
2022-12-28T12:09:22.271Z,2.45
2022-12-28T12:12:03.705Z,2.17
2022-12-28T12:14:43.096Z,4.00
2022-12-28T12:17:43.163Z,2.17
2022-12-28T12:20:33.334Z,1.55
2022-12-28T12:23:48.887Z,2.97
2022-12-28T12:26:38.246Z,2.08
2022-12-28T12:29:37.603Z,1.95
2022-12-28T12:32:34.269Z,1.77
2022-12-28T12:35:08.301Z,2.55
2022-12-28T12:40:49.180Z,1.48
2022-12-28T12:44:05.431Z,1.30
2022-12-28T12:46:50.050Z,1.98
2022-12-28T12:50:02.375Z,1.33
2022-12-28T12:52:53.108Z,1.67
2022-12-28T12:56:13.267Z,1.17
2022-12-28T12:58:57.799Z,0.90
2022-12-28T13:01:49.618Z,1.10
2022-12-28T13:04:29.173Z,2.15
2022-12-28T13:07:06.893Z,1.75
2022-12-28T13:09:39.515Z,1.27
2022-12-28T13:12:18.026Z,1.83
2022-12-28T13:15:00.552Z,0.65
2022-12-28T13:17:33.159Z,0.75
2022-12-28T13:20:21.362Z,1.00
2022-12-28T13:22:56.395Z,0.90
2022-12-28T13:25:32.688Z,1.25
2022-12-28T13:28:06.549Z,1.17
2022-12-28T13:30:39.324Z,1.25
2022-12-28T13:33:21.852Z,0.85
2022-12-28T13:36:10.606Z,1.45
2022-12-28T13:38:43.311Z,1.38
2022-12-28T13:41:26.145Z,1.83
2022-12-28T13:46:48.214Z,2.05
2022-12-28T13:49:22.200Z,1.33
2022-12-28T13:51:56.365Z,2.22
2022-12-28T13:54:31.895Z,1.45
2022-12-28T13:57:44.702Z,1.65
2022-12-28T14:00:01.715Z,1.80
2022-12-28T14:02:36.058Z,1.48
2022-12-28T14:05:17.589Z,1.73
2022-12-28T14:08:02.604Z,2.65
2022-12-28T14:10:36.761Z,2.83
2022-12-28T14:16:00.177Z,1.00
2022-12-28T14:18:36.511Z,1.05
2022-12-28T14:21:23.175Z,0.65
2022-12-28T14:24:09.331Z,1.50
2022-12-28T14:26:51.596Z,0.98
2022-12-28T14:29:33.099Z,2.53
2022-12-28T14:32:14.029Z,1.92
2022-12-28T14:34:52.415Z,1.02
2022-12-28T14:37:40.895Z,0.80
2022-12-28T14:40:31.349Z,0.88
2022-12-28T14:43:20.015Z,1.83
2022-12-28T14:48:47.064Z,1.40
2022-12-28T14:51:19.659Z,0.98
2022-12-28T14:54:24.956Z,2.70
2022-12-28T14:57:17.620Z,1.42
2022-12-28T15:00:01.664Z,0.85
2022-12-28T15:00:25.637Z,0.77
2022-12-28T15:02:34.279Z,1.30
2022-12-28T15:05:45.664Z,0.60
2022-12-28T15:08:18.981Z,1.92
2022-12-28T15:10:55.615Z,1.73
2022-12-28T15:13:28.160Z,1.60
2022-12-28T15:16:06.863Z,1.00
2022-12-28T15:18:47.878Z,0.90
2022-12-28T15:21:23.983Z,1.17
2022-12-28T15:23:57.427Z,1.05
2022-12-28T15:26:30.098Z,1.00
2022-12-28T15:29:06.197Z,1.15
2022-12-28T15:31:38.798Z,0.47
2022-12-28T15:34:11.392Z,1.25
2022-12-28T15:36:45.640Z,1.58
2022-12-28T15:39:18.369Z,2.00
2022-12-28T15:41:50.960Z,1.48
2022-12-28T15:44:23.550Z,1.23
2022-12-28T15:46:56.263Z,0.98
2022-12-28T15:49:29.028Z,1.52
2022-12-28T15:52:01.570Z,1.45
2022-12-28T15:54:34.236Z,1.88
2022-12-28T15:57:06.909Z,1.25
2022-12-28T15:59:39.703Z,1.85
2022-12-28T16:02:13.003Z,0.73
2022-12-28T16:04:45.811Z,1.40
2022-12-28T16:07:19.291Z,0.85
2022-12-28T16:09:51.961Z,1.00
2022-12-28T16:12:24.522Z,1.85
2022-12-28T16:14:57.100Z,1.42
2022-12-28T16:17:30.030Z,0.90
2022-12-28T16:20:03.509Z,0.98
2022-12-28T16:22:36.147Z,1.70
2022-12-28T16:25:09.068Z,1.27
2022-12-28T16:27:41.611Z,1.00
2022-12-28T16:30:14.418Z,1.58
2022-12-28T16:32:48.165Z,1.00
2022-12-28T16:35:21.085Z,1.08
2022-12-28T16:37:53.902Z,1.15
2022-12-28T16:40:26.482Z,0.73
2022-12-28T16:42:59.178Z,0.90
2022-12-28T16:45:39.672Z,1.00
2022-12-28T16:48:15.914Z,0.77
2022-12-28T16:50:58.886Z,0.90
2022-12-28T16:53:33.606Z,1.00
2022-12-28T16:56:07.267Z,1.38
2022-12-28T16:58:40.210Z,0.70
2022-12-28T17:01:14.658Z,1.17
2022-12-28T17:03:47.385Z,1.17
2022-12-28T17:06:20.100Z,1.70
2022-12-28T17:08:53.100Z,0.80
2022-12-28T17:11:25.604Z,0.98
2022-12-28T17:14:09.727Z,1.23
2022-12-28T17:16:42.320Z,0.60
2022-12-28T17:19:15.782Z,1.23
2022-12-28T17:21:48.549Z,2.55
2022-12-28T17:24:21.153Z,1.15
2022-12-28T17:26:53.737Z,1.10
2022-12-28T17:29:26.523Z,0.52
2022-12-28T17:31:59.099Z,1.42
2022-12-28T17:34:32.973Z,0.60
2022-12-28T17:37:05.813Z,1.02
2022-12-28T17:39:40.640Z,0.90
2022-12-28T17:42:13.582Z,0.98
2022-12-28T17:44:48.682Z,0.93
2022-12-28T17:47:21.375Z,0.95
2022-12-28T17:49:53.955Z,1.48
2022-12-28T17:52:27.107Z,0.82
2022-12-28T17:55:00.253Z,1.03
2022-12-28T17:57:36.947Z,1.50
2022-12-28T18:00:12.799Z,0.75
2022-12-28T18:02:46.875Z,1.35
2022-12-28T18:05:19.784Z,0.98
2022-12-28T18:07:52.361Z,0.65
2022-12-28T18:10:25.074Z,1.23
2022-12-28T18:12:57.592Z,1.27
2022-12-28T18:15:34.043Z,0.95
2022-12-28T18:18:07.373Z,0.82
2022-12-28T18:20:40.061Z,0.95
2022-12-28T18:23:12.771Z,0.90
2022-12-28T18:25:45.450Z,1.08
2022-12-28T18:28:18.414Z,1.20
2022-12-28T18:30:52.570Z,0.70
2022-12-28T18:33:27.551Z,1.20
2022-12-28T18:36:04.748Z,0.50
2022-12-28T18:38:42.645Z,0.60
2022-12-28T18:41:18.754Z,0.68
2022-12-28T18:43:51.594Z,0.80
2022-12-28T18:46:24.381Z,1.00
2022-12-28T18:48:56.993Z,0.80
2022-12-28T18:51:29.697Z,1.25
2022-12-28T18:54:02.234Z,0.70
2022-12-28T18:56:34.802Z,1.30
2022-12-28T18:59:07.456Z,0.80
2022-12-28T19:02:05.905Z,0.93
2022-12-28T19:04:33.096Z,0.88
2022-12-28T19:07:05.906Z,0.85
2022-12-28T19:09:38.574Z,1.08
2022-12-28T19:12:11.142Z,0.57
2022-12-28T19:14:43.660Z,0.65
2022-12-28T19:17:16.158Z,0.60
2022-12-28T19:19:50.055Z,0.73
2022-12-28T19:22:22.602Z,0.75
2022-12-28T19:24:55.123Z,0.60
2022-12-28T19:27:27.734Z,0.77
2022-12-28T19:30:00.413Z,0.70
2022-12-28T19:32:32.922Z,0.82
2022-12-28T19:35:05.774Z,0.77
2022-12-28T19:37:39.248Z,1.23
2022-12-28T19:40:12.310Z,0.70
2022-12-28T19:42:45.205Z,1.13
2022-12-28T19:45:18.590Z,0.50
2022-12-28T19:47:51.286Z,0.85
2022-12-28T19:50:24.018Z,0.88
2022-12-28T19:52:56.509Z,0.93
2022-12-28T19:55:29.520Z,0.90
2022-12-28T19:58:02.208Z,0.90
2022-12-28T20:00:34.935Z,1.52
2022-12-28T20:03:08.331Z,0.50
2022-12-28T20:05:41.119Z,0.63
2022-12-28T20:08:14.049Z,0.63
2022-12-28T20:10:56.204Z,1.30
2022-12-28T20:13:31.182Z,0.98
2022-12-28T20:16:04.827Z,0.88
2022-12-28T20:18:37.374Z,0.60
2022-12-28T20:21:19.300Z,0.63
2022-12-28T20:23:54.630Z,0.93
2022-12-28T20:26:28.996Z,0.63
2022-12-28T20:29:03.573Z,1.00
2022-12-28T20:31:36.110Z,1.10
2022-12-28T20:34:08.817Z,0.63
2022-12-28T20:36:41.455Z,0.63
2022-12-28T20:39:14.111Z,0.85
2022-12-28T20:42:05.075Z,0.55
2022-12-28T20:44:37.918Z,0.50
2022-12-28T20:47:12.649Z,0.45
2022-12-28T20:49:46.265Z,0.88
2022-12-28T20:52:18.901Z,0.73
2022-12-28T20:54:51.605Z,1.60
2022-12-28T20:57:24.191Z,0.60
2022-12-28T20:59:56.771Z,0.93
2022-12-28T21:02:29.349Z,0.47
2022-12-28T21:05:02.208Z,0.65
2022-12-28T21:07:35.058Z,0.85
2022-12-28T21:10:08.192Z,0.52
2022-12-28T21:12:40.717Z,0.85
2022-12-28T21:15:13.318Z,0.50
2022-12-28T21:17:45.987Z,0.90
2022-12-28T21:20:18.736Z,1.15
2022-12-28T21:22:51.582Z,1.08
2022-12-28T21:25:24.240Z,0.60
2022-12-28T21:27:56.764Z,0.50
2022-12-28T21:30:29.446Z,0.60
2022-12-28T21:33:02.133Z,0.80
2022-12-28T21:35:35.786Z,0.60
2022-12-28T21:38:08.461Z,1.15
2022-12-28T21:40:40.987Z,0.80
2022-12-28T21:43:13.665Z,0.38
2022-12-28T21:46:02.169Z,0.80
2022-12-28T21:48:37.817Z,0.63
2022-12-28T21:51:34.141Z,0.90
2022-12-28T21:54:22.078Z,1.00
2022-12-28T22:10:33.069Z,0.73
2022-12-28T22:13:05.919Z,0.73
2022-12-28T22:15:53.988Z,0.70
2022-12-28T22:19:00.368Z,0.60
2022-12-28T22:21:19.862Z,0.77
2022-12-28T22:23:52.393Z,0.82
2022-12-28T22:26:25.074Z,1.00
2022-12-28T22:28:57.655Z,0.88
2022-12-28T22:31:30.393Z,0.85
2022-12-28T22:34:07.104Z,0.90
2022-12-28T22:36:40.254Z,0.85
2022-12-28T22:39:12.940Z,1.35
2022-12-28T22:41:46.542Z,0.52
2022-12-28T22:44:19.205Z,0.90
2022-12-28T22:46:51.890Z,0.80
2022-12-28T22:49:26.850Z,0.43
2022-12-28T22:52:04.640Z,0.70
2022-12-28T22:54:37.527Z,0.70
2022-12-28T22:57:10.245Z,0.55
2022-12-28T22:59:43.137Z,0.90
2022-12-28T23:02:15.918Z,0.90
2022-12-28T23:04:49.724Z,0.40
2022-12-28T23:07:22.423Z,0.55
2022-12-28T23:09:55.195Z,0.65
2022-12-28T23:12:27.829Z,1.25
2022-12-28T23:15:15.737Z,0.82
2022-12-28T23:17:49.327Z,0.90
2022-12-28T23:20:40.448Z,1.00
2022-12-28T23:23:31.788Z,1.15
2022-12-28T23:26:29.244Z,1.20
2022-12-28T23:29:01.932Z,1.17
2022-12-28T23:31:34.640Z,1.10
2022-12-28T23:34:07.332Z,0.50
2022-12-28T23:36:39.958Z,0.55
2022-12-28T23:39:12.523Z,1.30
2022-12-28T23:41:51.263Z,0.55
2022-12-28T23:44:26.676Z,1.02
2022-12-28T23:46:59.848Z,0.60
2022-12-28T23:49:32.491Z,0.97
2022-12-28T23:52:05.001Z,0.80
2022-12-28T23:54:37.999Z,1.00
2022-12-28T23:57:10.726Z,0.77
2022-12-28T23:59:44.707Z,0.60
